createdAt,value
2023-01-12T00:10:39.689Z,101146.30
2023-01-12T00:13:05.302Z,101145.87
2023-01-12T00:14:16.003Z,101152.86
2023-01-12T00:16:51.975Z,101154.73
2023-01-12T00:18:01.112Z,101149.60
2023-01-12T00:19:15.845Z,101154.31
2023-01-12T00:20:24.789Z,101167.62
2023-01-12T00:21:46.069Z,101160.07
2023-01-12T00:22:55.012Z,101164.66
2023-01-12T00:25:22.367Z,101165.19
2023-01-12T00:27:49.819Z,101157.59
2023-01-12T00:28:59.610Z,101157.59
2023-01-12T00:30:10.784Z,101167.19
2023-01-12T00:31:19.943Z,101162.89
2023-01-12T00:32:30.516Z,101164.75
2023-01-12T00:33:40.238Z,101164.01
2023-01-12T00:34:49.966Z,101163.28
2023-01-12T00:36:04.792Z,101154.64
2023-01-12T00:37:14.764Z,101159.96
2023-01-12T00:38:24.599Z,101160.83
2023-01-12T00:39:37.472Z,101159.85
2023-01-12T00:40:48.864Z,101158.87
2023-01-12T00:42:18.067Z,101167.47
2023-01-12T00:43:45.166Z,101170.85
2023-01-12T00:45:12.878Z,101175.03
2023-01-12T00:46:33.643Z,101170.56
2023-01-12T00:47:42.758Z,101176.48
2023-01-12T00:48:51.771Z,101178.09
2023-01-12T00:50:01.365Z,101177.07
2023-01-12T00:51:10.066Z,101179.64
2023-01-12T00:52:30.960Z,101175.34
2023-01-12T00:53:34.232Z,101176.14
2023-01-12T00:54:43.469Z,101169.09
2023-01-12T00:55:51.986Z,101181.26
2023-01-12T00:57:01.929Z,101180.31
2023-01-12T00:58:11.514Z,101171.58
2023-01-12T00:59:20.500Z,101170.68
2023-01-12T01:00:30.283Z,101178.41
2023-01-12T01:01:38.857Z,101180.98
2023-01-12T01:02:55.207Z,101183.56
2023-01-12T01:04:04.158Z,101190.51
2023-01-12T01:05:13.174Z,101188.69
2023-01-12T01:06:23.072Z,101189.53
2023-01-12T01:07:32.344Z,101186.91
2023-01-12T01:08:41.399Z,101187.70
2023-01-12T01:11:09.569Z,101175.70
2023-01-12T01:12:20.121Z,101184.14
2023-01-12T01:13:29.693Z,101184.16
2023-01-12T01:14:39.432Z,101186.75
2023-01-12T01:15:49.042Z,101186.75
2023-01-12T01:16:57.829Z,101181.50
2023-01-12T01:18:06.823Z,101184.11
2023-01-12T01:19:16.564Z,101182.34
2023-01-12T01:20:25.075Z,101181.45
2023-01-12T01:21:36.303Z,101184.88
2023-01-12T01:22:45.560Z,101175.27
2023-01-12T01:23:54.595Z,101178.69
2023-01-12T01:25:04.225Z,101178.75
2023-01-12T01:27:36.659Z,101183.27
2023-01-12T01:28:46.233Z,101190.91
2023-01-12T01:29:55.604Z,101197.06
2023-01-12T01:31:14.779Z,101184.00
2023-01-12T01:32:24.268Z,101188.35
2023-01-12T01:33:33.921Z,101191.87
2023-01-12T01:34:44.232Z,101188.44
2023-01-12T01:35:53.730Z,101193.69
2023-01-12T01:37:12.167Z,101198.05
2023-01-12T01:38:20.802Z,101198.05
2023-01-12T01:39:30.631Z,101204.14
2023-01-12T01:40:43.799Z,101195.41
2023-01-12T01:43:11.141Z,101190.56
2023-01-12T01:44:35.536Z,101195.63
2023-01-12T01:47:10.561Z,101199.34
2023-01-12T01:48:21.407Z,101202.62
2023-01-12T01:49:32.046Z,101202.59
2023-01-12T01:50:45.863Z,101196.44
2023-01-12T01:51:58.170Z,101194.75
2023-01-12T01:54:29.546Z,101191.45
2023-01-12T01:57:06.096Z,101189.77
2023-01-12T01:58:21.738Z,101196.55
2023-01-12T01:59:34.606Z,101194.83
2023-01-12T02:02:03.881Z,101192.44
2023-01-12T02:03:14.580Z,101196.55
2023-01-12T02:04:26.282Z,101194.78
2023-01-12T02:05:38.428Z,101193.02
2023-01-12T02:06:48.985Z,101195.63
2023-01-12T02:09:20.868Z,101192.56
2023-01-12T02:10:30.015Z,101204.78
2023-01-12T02:11:57.623Z,101199.77
2023-01-12T02:13:25.705Z,101200.84
2023-01-12T02:14:53.632Z,101206.32
2023-01-12T02:16:22.366Z,101202.22
2023-01-12T02:19:28.538Z,101200.34
2023-01-12T02:20:48.727Z,101187.17
2023-01-12T02:22:03.819Z,101184.70
2023-01-12T02:23:33.239Z,101189.03
2023-01-12T02:26:29.958Z,101178.45
2023-01-12T02:27:46.505Z,101178.13
2023-01-12T02:29:25.743Z,101170.15
2023-01-12T02:31:13.738Z,101184.90
2023-01-12T02:32:29.859Z,101186.48
2023-01-12T02:33:47.098Z,101193.37
2023-01-12T02:35:08.610Z,101181.94
2023-01-12T02:36:28.006Z,101176.66
2023-01-12T02:38:03.631Z,101185.33
2023-01-12T02:39:19.943Z,101180.08
2023-01-12T02:40:36.531Z,101184.48
2023-01-12T02:42:11.412Z,101176.61
2023-01-12T02:43:29.526Z,101184.46
2023-01-12T02:46:21.744Z,101172.44
2023-01-12T02:47:40.814Z,101178.33
2023-01-12T02:48:56.773Z,101167.87
2023-01-12T02:50:10.224Z,101181.87
2023-01-12T02:51:42.046Z,101172.30
2023-01-12T02:52:56.331Z,101172.25
2023-01-12T02:54:10.833Z,101171.38
2023-01-12T02:55:21.939Z,101167.84
2023-01-12T02:56:44.817Z,101159.13
2023-01-12T02:57:57.100Z,101163.52
2023-01-12T02:59:10.087Z,101171.28
2023-01-12T03:00:21.448Z,101169.57
2023-01-12T03:01:34.042Z,101167.82
2023-01-12T03:02:44.625Z,101173.03
2023-01-12T03:03:57.904Z,101169.57
2023-01-12T03:05:09.410Z,101172.16
2023-01-12T03:08:57.488Z,101173.20
2023-01-12T03:10:24.196Z,101168.67
2023-01-12T03:11:37.598Z,101167.82
2023-01-12T03:12:51.483Z,101165.23
2023-01-12T03:14:03.102Z,101160.00
2023-01-12T03:15:17.574Z,101149.58
2023-01-12T03:18:07.515Z,101154.95
2023-01-12T03:19:20.375Z,101155.65
2023-01-12T03:20:36.690Z,101157.36
2023-01-12T03:21:49.457Z,101156.49
2023-01-12T03:23:03.826Z,101154.70
2023-01-12T03:25:33.973Z,101149.64
2023-01-12T03:26:52.060Z,101152.95
2023-01-12T03:28:04.443Z,101157.27
2023-01-12T03:30:48.991Z,101147.87
2023-01-12T03:31:59.366Z,101145.87
2023-01-12T03:33:11.177Z,101148.48
2023-01-12T03:34:21.425Z,101146.79
2023-01-12T03:35:34.622Z,101147.66
2023-01-12T03:37:01.042Z,101153.75
2023-01-12T03:40:02.400Z,101146.13
2023-01-12T03:41:15.353Z,101131.17
2023-01-12T03:42:28.193Z,101136.46
2023-01-12T03:43:41.374Z,101139.13
2023-01-12T03:45:15.671Z,101133.20
2023-01-12T03:47:57.889Z,101132.06
2023-01-12T03:50:45.085Z,101120.16
2023-01-12T03:51:58.281Z,101118.44
2023-01-12T03:53:09.952Z,101124.70
2023-01-12T03:54:21.487Z,101118.70
2023-01-12T03:55:32.910Z,101128.45
2023-01-12T03:56:44.881Z,101129.36
2023-01-12T03:57:56.239Z,101133.78
2023-01-12T03:59:05.904Z,101132.05
2023-01-12T04:00:19.652Z,101125.03
2023-01-12T04:01:28.945Z,101131.91
2023-01-12T04:02:40.285Z,101127.45
2023-01-12T09:07:54.435Z,101037.13
2023-01-12T09:09:12.195Z,101033.61
2023-01-12T09:10:22.350Z,101045.91
2023-01-12T09:11:36.034Z,101046.85
2023-01-12T09:12:44.811Z,101051.34
2023-01-12T09:13:56.192Z,101047.11
2023-01-12T09:16:22.861Z,101037.75
2023-01-12T09:17:31.497Z,101038.64
2023-01-12T09:18:42.128Z,101036.09
2023-01-12T09:19:51.460Z,101031.76
2023-01-12T09:22:23.505Z,101019.58
2023-01-12T09:23:33.556Z,101028.33
2023-01-12T09:24:43.283Z,101032.75
2023-01-12T09:25:51.799Z,101035.38
2023-01-12T09:27:02.101Z,101031.89
2023-01-12T09:28:10.705Z,101029.29
2023-01-12T09:29:19.345Z,101026.66
2023-01-12T09:30:29.007Z,101027.55
2023-01-12T09:32:55.366Z,101030.20
2023-01-12T09:35:38.730Z,101034.58
2023-01-12T09:36:49.743Z,101039.82
2023-01-12T09:37:58.106Z,101019.67
2023-01-12T09:39:15.368Z,101024.08
2023-01-12T09:40:21.093Z,101034.59
2023-01-12T09:43:33.128Z,101031.09
2023-01-12T09:45:06.782Z,101045.09
2023-01-12T09:46:41.714Z,101038.97
2023-01-12T09:47:55.972Z,101036.33
2023-01-12T09:49:06.418Z,101034.58
2023-01-12T09:50:22.519Z,101034.56
2023-01-12T09:51:37.732Z,101029.30
2023-01-12T09:54:17.002Z,101029.27
2023-01-12T09:57:20.669Z,101029.25
2023-01-12T09:58:50.915Z,101033.66
2023-01-12T10:00:15.914Z,101027.54
2023-01-12T10:01:29.616Z,101024.88
2023-01-12T10:02:40.191Z,101019.63
2023-01-12T10:03:50.751Z,101035.42
2023-01-12T10:05:02.981Z,101038.90
2023-01-12T10:06:18.272Z,101041.52
2023-01-12T10:07:27.049Z,101039.80
2023-01-12T10:08:39.793Z,101031.91
2023-01-12T10:09:49.785Z,101033.64
2023-01-12T10:11:29.647Z,101038.02
2023-01-12T10:12:42.385Z,101026.63
2023-01-12T10:14:13.176Z,101033.64
2023-01-12T10:17:13.740Z,101028.41
2023-01-12T10:18:31.050Z,101023.17
2023-01-12T10:19:50.971Z,101031.97
2023-01-12T10:22:37.566Z,101026.69
2023-01-12T10:23:47.936Z,101030.21
2023-01-12T10:24:56.712Z,101031.08
2023-01-12T10:26:24.363Z,101026.69
2023-01-12T10:28:56.522Z,101025.81
2023-01-12T10:31:26.838Z,101018.80
2023-01-12T10:32:41.925Z,101015.30
2023-01-12T10:35:25.116Z,101014.42
2023-01-12T10:36:39.766Z,101013.53
2023-01-12T10:37:53.706Z,101010.90
2023-01-12T10:39:05.579Z,101017.05
2023-01-12T10:40:30.822Z,101013.54
2023-01-12T10:41:39.433Z,100994.26
2023-01-12T10:44:32.206Z,100998.63
2023-01-12T10:45:43.236Z,100995.99
2023-01-12T10:46:58.976Z,101002.11
2023-01-12T10:48:17.942Z,101000.37
2023-01-12T10:49:27.492Z,100996.85
2023-01-12T10:50:36.843Z,101005.64
2023-01-12T10:52:00.591Z,100992.51
2023-01-12T10:53:17.464Z,100995.12
2023-01-12T10:54:32.135Z,100998.64
2023-01-12T10:55:44.407Z,100987.24
2023-01-12T10:57:20.864Z,100986.36
2023-01-12T10:58:32.607Z,100988.98
2023-01-12T10:59:43.333Z,100992.48
2023-01-12T11:00:53.578Z,100980.21
2023-01-12T11:04:49.584Z,100989.87
2023-01-12T11:06:18.295Z,100986.34
2023-01-12T11:07:31.289Z,100982.00
2023-01-12T11:08:41.120Z,100990.73
2023-01-12T11:09:50.753Z,100985.47
2023-01-12T11:11:04.140Z,100983.70
2023-01-12T11:12:31.684Z,100984.56
2023-01-12T11:13:41.469Z,100986.30
2023-01-12T11:17:49.889Z,100970.42
2023-01-12T11:19:05.150Z,100973.95
2023-01-12T11:20:26.580Z,100972.16
2023-01-12T11:21:38.937Z,100975.65
2023-01-12T11:22:50.683Z,100972.19
2023-01-12T11:24:34.567Z,100981.88
2023-01-12T11:25:45.838Z,100987.16
2023-01-12T11:27:05.809Z,100979.29
2023-01-12T11:28:30.088Z,100984.58
2023-01-12T11:29:57.390Z,100993.39
2023-01-12T11:32:44.255Z,100984.62
2023-01-12T11:35:32.220Z,100982.85
2023-01-12T11:36:44.459Z,100988.97
2023-01-12T11:37:56.788Z,100986.35
2023-01-12T11:39:14.766Z,100984.59
2023-01-12T11:40:37.165Z,100988.12
2023-01-12T11:42:16.733Z,100985.48
2023-01-12T11:43:50.179Z,100969.70
2023-01-12T11:45:11.427Z,100967.06
2023-01-12T11:47:58.335Z,100962.63
2023-01-12T11:49:27.367Z,100963.52
2023-01-12T11:50:39.196Z,100970.51
2023-01-12T11:51:50.625Z,100963.46
2023-01-12T11:53:01.566Z,100973.97
2023-01-12T11:54:14.346Z,100972.17
2023-01-12T11:55:35.853Z,100966.01
2023-01-12T11:57:02.531Z,100975.69
2023-01-12T12:00:01.480Z,100958.11
2023-01-12T12:04:51.068Z,100953.86
2023-01-12T12:06:25.501Z,100954.77
2023-01-12T12:07:49.972Z,100965.30
2023-01-12T12:09:35.469Z,100953.05
2023-01-12T12:10:54.644Z,100952.17
2023-01-12T12:13:37.746Z,100957.44
2023-01-12T12:15:00.765Z,100957.44
2023-01-12T12:16:14.737Z,100953.95
2023-01-12T12:17:46.289Z,100953.95
2023-01-12T12:19:02.151Z,100950.41
2023-01-12T12:20:19.588Z,100951.31
2023-01-12T12:21:37.984Z,100946.91
2023-01-12T12:24:57.373Z,100946.00
2023-01-12T12:26:29.146Z,100950.39
2023-01-12T12:27:41.460Z,100949.48
2023-01-12T12:30:42.905Z,100926.56
2023-01-12T12:31:58.468Z,100939.77
2023-01-12T12:33:21.980Z,100936.25
2023-01-12T12:34:46.533Z,100928.39
2023-01-12T12:36:02.469Z,100937.17
2023-01-12T12:37:33.103Z,100938.97
2023-01-12T12:38:47.510Z,100928.45
2023-01-12T12:40:13.547Z,100928.47
2023-01-12T12:42:01.345Z,100931.14
2023-01-12T12:43:32.685Z,100925.87
2023-01-12T12:45:13.458Z,100925.89
2023-01-12T12:48:02.908Z,100929.38
2023-01-12T12:49:20.179Z,100920.63
2023-01-12T12:50:53.764Z,100923.23
2023-01-12T12:52:05.309Z,100921.52
2023-01-12T12:53:33.070Z,100932.02
2023-01-12T12:54:43.432Z,100928.49
2023-01-12T12:55:55.377Z,100920.61
2023-01-12T12:57:05.773Z,100920.63
2023-01-12T12:59:59.880Z,100927.64
2023-01-12T13:01:28.688Z,100939.89
2023-01-12T13:04:04.540Z,100924.06
2023-01-12T13:05:16.870Z,100929.34
2023-01-12T13:06:32.681Z,100936.38
2023-01-12T13:07:45.400Z,100928.48
2023-01-12T13:10:26.315Z,100926.76
2023-01-12T13:11:57.071Z,100923.25
2023-01-12T13:13:09.742Z,100929.39
2023-01-12T13:14:23.076Z,100936.39
2023-01-12T13:15:36.100Z,100943.41
2023-01-12T13:16:51.749Z,100946.02
2023-01-12T13:18:01.635Z,100953.05
2023-01-12T13:19:13.366Z,100946.03
2023-01-12T13:21:58.419Z,100939.88
2023-01-12T13:23:11.443Z,100941.63
2023-01-12T13:24:31.103Z,100925.86
2023-01-12T13:25:49.781Z,100944.25
2023-01-12T13:27:00.743Z,100945.11
2023-01-12T13:28:13.952Z,100933.73
2023-01-12T13:29:35.758Z,100937.27
2023-01-12T13:30:55.231Z,100943.38
2023-01-12T13:32:24.515Z,100940.77
2023-01-12T13:33:35.023Z,100940.78
2023-01-12T13:36:05.193Z,100934.66
2023-01-12T13:37:33.296Z,100939.02
2023-01-12T13:40:24.576Z,100931.97
2023-01-12T13:41:54.870Z,100939.88
2023-01-12T13:44:35.343Z,100931.10
2023-01-12T13:46:03.115Z,100944.28
2023-01-12T13:48:37.938Z,100947.78
2023-01-12T13:49:53.697Z,100942.52
2023-01-12T13:51:07.460Z,100948.66
2023-01-12T13:53:39.507Z,100946.92
2023-01-12T13:56:09.456Z,100940.78
2023-01-12T13:57:22.206Z,100953.05
2023-01-12T13:58:41.052Z,100939.91
2023-01-12T14:01:24.831Z,100946.02
2023-01-12T14:02:34.865Z,100951.26
2023-01-12T14:04:08.544Z,100942.52
2023-01-12T14:05:24.500Z,100947.77
2023-01-12T14:08:51.286Z,100945.13
2023-01-12T14:10:02.121Z,100945.14
2023-01-12T14:11:15.839Z,100961.81
2023-01-12T14:12:47.437Z,100950.41
2023-01-12T14:14:02.099Z,100948.69
2023-01-12T14:15:55.033Z,100961.83
2023-01-12T14:17:34.971Z,100954.78
2023-01-12T14:18:50.338Z,100959.16
2023-01-12T14:19:58.950Z,100958.27
2023-01-12T14:21:26.635Z,100956.50
2023-01-12T14:22:36.165Z,100961.77
2023-01-12T14:23:46.056Z,100952.98
2023-01-12T14:24:58.361Z,100960.03
2023-01-12T14:26:14.339Z,100953.91
2023-01-12T14:27:26.769Z,100946.89
2023-01-12T14:31:32.370Z,100954.82
2023-01-12T14:32:47.616Z,100952.16
2023-01-12T14:34:02.256Z,100951.28
2023-01-12T14:36:37.989Z,100947.78
2023-01-12T14:37:53.488Z,100944.24
2023-01-12T14:39:05.776Z,100935.50
2023-01-12T14:40:27.504Z,100949.50
2023-01-12T14:41:54.927Z,100953.00
2023-01-12T14:43:24.042Z,100961.77
2023-01-12T14:44:53.185Z,100949.54
2023-01-12T14:46:22.672Z,100953.94
2023-01-12T14:47:35.275Z,100958.31
2023-01-12T14:49:02.234Z,100948.66
2023-01-12T14:50:17.112Z,100960.95
2023-01-12T14:51:35.875Z,100954.79
2023-01-12T14:52:46.942Z,100949.50
2023-01-12T14:53:59.632Z,100945.11
2023-01-12T14:55:29.238Z,100943.34
2023-01-12T14:58:09.148Z,100935.37
2023-01-12T14:59:22.927Z,100945.09
2023-01-12T15:00:38.878Z,100952.13
2023-01-12T15:01:48.265Z,100957.40
2023-01-12T15:03:01.455Z,100955.66
2023-01-12T15:05:35.935Z,100948.66
2023-01-12T15:06:46.819Z,100965.31
2023-01-12T15:08:00.078Z,100958.30
2023-01-12T15:09:31.189Z,100953.92
2023-01-12T15:10:42.771Z,100957.42
2023-01-12T15:11:52.203Z,100955.67
2023-01-12T15:13:32.560Z,100946.89
2023-01-12T15:14:41.105Z,100953.92
2023-01-12T15:16:13.078Z,100960.01
2023-01-12T15:17:40.974Z,100954.76
2023-01-12T15:19:08.597Z,100957.41
2023-01-12T15:20:35.912Z,100960.92
2023-01-12T15:22:04.639Z,100960.05
2023-01-12T15:23:33.736Z,100960.07
2023-01-12T15:25:02.233Z,100955.67
2023-01-12T15:26:10.871Z,100959.20
2023-01-12T15:27:23.128Z,100962.70
2023-01-12T15:28:31.693Z,100961.81
2023-01-12T15:29:40.692Z,100961.81
2023-01-12T15:30:49.859Z,100960.03
2023-01-12T15:33:16.003Z,100965.25
2023-01-12T15:34:25.201Z,100971.41
2023-01-12T15:35:35.144Z,100965.27
2023-01-12T15:36:44.807Z,100966.99
2023-01-12T15:37:57.281Z,100964.36
2023-01-12T15:39:05.916Z,100972.28
2023-01-12T15:40:15.795Z,100967.91
2023-01-12T15:41:47.075Z,100970.57
2023-01-12T15:42:57.524Z,100968.80
2023-01-12T15:44:12.340Z,100979.36
2023-01-12T15:45:43.564Z,100975.84
2023-01-12T15:46:52.469Z,100975.83
2023-01-12T15:48:02.701Z,100974.95
2023-01-12T15:49:14.226Z,100974.96
2023-01-12T15:50:24.955Z,100973.17
2023-01-12T15:51:36.418Z,100981.92
2023-01-12T15:52:48.090Z,100974.91
2023-01-12T15:53:57.251Z,100975.77
2023-01-12T15:55:06.452Z,100974.91
2023-01-12T15:56:15.958Z,100976.64
2023-01-12T15:57:24.692Z,100972.25
2023-01-12T15:58:34.252Z,100975.73
2023-01-12T15:59:43.412Z,100974.88
2023-01-12T16:00:53.889Z,100969.63
2023-01-12T16:03:48.209Z,100958.28
2023-01-12T16:04:42.816Z,100967.89
2023-01-12T16:05:40.904Z,100963.53
2023-01-12T16:06:51.368Z,100958.29
2023-01-12T16:08:00.392Z,100966.22
2023-01-12T16:09:09.558Z,100954.80
2023-01-12T16:10:20.484Z,100957.45
2023-01-12T16:11:30.234Z,100963.58
2023-01-12T16:12:40.586Z,100957.42
2023-01-12T16:13:49.864Z,100956.53
2023-01-12T16:16:16.778Z,100955.63
2023-01-12T16:17:25.608Z,100953.92
2023-01-12T16:19:49.540Z,100946.02
2023-01-12T16:20:58.965Z,100961.82
2023-01-12T16:22:23.156Z,100947.80
2023-01-12T16:23:32.665Z,100962.69
2023-01-12T16:24:43.803Z,100953.03
2023-01-12T16:25:58.353Z,100946.92
2023-01-12T16:27:07.684Z,100954.80
2023-01-12T16:28:16.309Z,100960.03
2023-01-12T16:29:24.976Z,100957.41
2023-01-12T16:30:35.324Z,100949.53
2023-01-12T16:31:44.744Z,100958.28
2023-01-12T16:32:53.334Z,100953.00
2023-01-12T16:34:03.308Z,100946.88
2023-01-12T16:35:13.187Z,100940.73
2023-01-12T16:37:37.822Z,100939.86
2023-01-12T16:40:03.357Z,100934.61
2023-01-12T16:42:37.930Z,100938.97
2023-01-12T16:43:46.601Z,100942.45
2023-01-12T16:44:55.954Z,100938.94
2023-01-12T16:46:05.940Z,100940.69
2023-01-12T16:47:17.839Z,100939.80
2023-01-12T16:48:26.487Z,100941.55
2023-01-12T16:49:36.083Z,100944.18
2023-01-12T16:50:45.780Z,100936.30
2023-01-12T16:51:55.157Z,100943.28
2023-01-12T16:53:04.781Z,100929.33
2023-01-12T16:54:13.411Z,100932.84
2023-01-12T16:55:21.948Z,100924.09
2023-01-12T16:56:30.683Z,100921.48
2023-01-12T16:57:40.731Z,100917.11
2023-01-12T16:58:49.602Z,100918.87
2023-01-12T16:59:58.723Z,100911.86
2023-01-12T17:01:18.115Z,100911.86
2023-01-12T17:02:28.239Z,100917.12
2023-01-12T17:03:38.840Z,100922.33
2023-01-12T17:06:10.561Z,100932.84
2023-01-12T17:07:19.740Z,100922.37
2023-01-12T17:08:28.869Z,100928.51
2023-01-12T17:09:39.264Z,100926.77
2023-01-12T17:10:47.881Z,100916.23
2023-01-12T17:11:57.817Z,100925.88
2023-01-12T17:13:07.215Z,100916.25
2023-01-12T17:14:26.353Z,100915.37
2023-01-12T17:15:35.175Z,100919.73
2023-01-12T17:16:43.900Z,100910.09
2023-01-12T17:17:54.308Z,100923.25
2023-01-12T17:19:03.227Z,100923.25
2023-01-12T17:20:14.073Z,100911.84
2023-01-12T17:21:23.950Z,100913.58
2023-01-12T17:22:34.820Z,100917.11
2023-01-12T17:23:44.143Z,100903.95
2023-01-12T17:24:53.011Z,100910.97
2023-01-12T17:26:06.265Z,100904.81
2023-01-12T17:27:15.560Z,100900.46
2023-01-12T17:28:24.817Z,100900.43
2023-01-12T17:30:43.621Z,100895.19
2023-01-12T17:31:56.508Z,100908.31
2023-01-12T17:33:06.087Z,100906.55
2023-01-12T17:34:15.634Z,100896.91
2023-01-12T17:35:24.698Z,100905.69
2023-01-12T17:36:34.289Z,100905.69
2023-01-12T17:37:42.885Z,100899.53
2023-01-12T17:38:51.983Z,100902.16
2023-01-12T17:40:00.922Z,100910.94
2023-01-12T17:41:15.699Z,100909.15
2023-01-12T17:42:43.079Z,100907.42
2023-01-12T17:43:52.039Z,100912.67
2023-01-12T17:45:05.295Z,100915.30
2023-01-12T17:46:19.179Z,100916.16
2023-01-12T17:47:28.075Z,100922.27
2023-01-12T17:48:36.953Z,100909.18
2023-01-12T17:49:47.211Z,100915.30
2023-01-12T17:50:55.707Z,100917.06
2023-01-12T17:52:04.770Z,100910.07
2023-01-12T17:53:17.075Z,100909.20
2023-01-12T17:54:25.916Z,100906.58
2023-01-12T17:55:47.525Z,100910.09
2023-01-12T17:56:50.202Z,100910.10
2023-01-12T17:57:58.762Z,100912.74
2023-01-12T17:59:08.675Z,100914.48
2023-01-12T18:00:19.409Z,100910.12
2023-01-12T18:01:31.995Z,100910.98
2023-01-12T18:02:43.006Z,100908.34
2023-01-12T18:03:52.492Z,100908.34
2023-01-12T18:06:25.883Z,100900.46
2023-01-12T18:07:29.119Z,100898.72
2023-01-12T18:08:37.712Z,100899.59
2023-01-12T18:09:46.996Z,100896.98
2023-01-12T18:10:57.159Z,100898.72
2023-01-12T18:12:06.992Z,100887.34
2023-01-12T18:13:16.216Z,100895.20
2023-01-12T18:14:25.629Z,100888.19
2023-01-12T18:15:34.194Z,100889.09
2023-01-12T18:16:42.862Z,100885.57
2023-01-12T18:17:52.462Z,100891.70
2023-01-12T18:19:06.859Z,100889.07
2023-01-12T18:20:15.991Z,100889.07
2023-01-12T18:21:27.385Z,100900.45
2023-01-12T18:22:36.519Z,100891.70
2023-01-12T18:23:45.226Z,100900.45
2023-01-12T18:24:53.978Z,100897.83
2023-01-12T18:26:04.320Z,100897.83
2023-01-12T18:27:13.892Z,100901.33
2023-01-12T18:28:23.822Z,100898.70
2023-01-12T18:29:32.544Z,100905.69
2023-01-12T18:30:41.293Z,100901.30
2023-01-12T18:31:49.937Z,100893.42
2023-01-12T18:32:59.481Z,100903.06
2023-01-12T18:34:10.241Z,100897.81
2023-01-12T18:35:20.975Z,100901.30
2023-01-12T18:36:29.734Z,100902.16
2023-01-12T18:37:38.241Z,100899.54
2023-01-12T18:38:48.899Z,100908.28
2023-01-12T18:39:57.664Z,100904.80
2023-01-12T18:41:25.260Z,100911.77
2023-01-12T18:42:49.334Z,100918.78
2023-01-12T18:44:01.850Z,100913.53
2023-01-12T18:45:10.646Z,100913.53
2023-01-12T18:46:20.005Z,100909.14
2023-01-12T18:47:47.261Z,100909.14
2023-01-12T18:48:55.847Z,100907.38
2023-01-12T18:50:25.711Z,100905.66
2023-01-12T18:51:52.582Z,100911.77
2023-01-12T18:53:21.624Z,100908.28
2023-01-12T18:54:31.683Z,100906.55
2023-01-12T18:55:41.911Z,100904.81
2023-01-12T18:56:52.310Z,100905.73
2023-01-12T18:58:01.946Z,100901.36
2023-01-12T18:59:11.664Z,100905.72
2023-01-12T19:00:22.979Z,100906.62
2023-01-12T19:02:46.563Z,100907.45
2023-01-12T19:03:56.072Z,100900.47
2023-01-12T19:05:13.380Z,100903.08
2023-01-12T19:06:24.162Z,100896.08
2023-01-12T19:07:34.567Z,100888.19
2023-01-12T19:09:02.336Z,100901.36
2023-01-12T19:10:11.660Z,100894.36
2023-01-12T19:11:20.611Z,100888.21
2023-01-12T19:12:30.696Z,100886.47
2023-01-12T19:13:58.040Z,100887.34
2023-01-12T19:15:27.305Z,100885.59
2023-01-12T19:16:54.631Z,100889.92
2023-01-12T19:18:03.397Z,100888.17
2023-01-12T19:19:12.362Z,100878.53
2023-01-12T19:20:21.152Z,100875.91
2023-01-12T19:21:48.384Z,100871.52
2023-01-12T19:23:15.541Z,100875.88
2023-01-12T19:24:42.656Z,100883.75
2023-01-12T19:26:09.848Z,100880.27
2023-01-12T19:27:37.100Z,100876.74
2023-01-12T19:28:46.871Z,100884.62
2023-01-12T19:29:55.655Z,100885.48
2023-01-12T19:31:07.700Z,100888.10
2023-01-12T19:32:17.622Z,100893.35
2023-01-12T19:33:27.850Z,100887.20
2023-01-12T19:34:37.549Z,100882.81
2023-01-12T19:35:47.139Z,100885.44
2023-01-12T19:36:57.246Z,100888.96
2023-01-12T19:38:06.457Z,100896.84
2023-01-12T19:39:16.937Z,100895.11
2023-01-12T19:44:29.608Z,100899.61
2023-01-12T19:45:42.877Z,100894.35
2023-01-12T19:46:52.054Z,100902.23
2023-01-12T19:48:00.929Z,100900.45
2023-01-12T19:49:10.354Z,100901.32
2023-01-12T19:50:19.248Z,100894.33
2023-01-12T19:51:27.833Z,100901.34
2023-01-12T19:53:54.891Z,100893.45
2023-01-12T19:55:06.072Z,100900.46
2023-01-12T19:56:15.342Z,100896.98
2023-01-12T19:57:24.285Z,100902.22
2023-01-12T19:58:36.403Z,100889.95
2023-01-12T19:59:47.491Z,100890.84
2023-01-12T22:24:18.149Z,100875.53
2023-01-12T22:25:27.497Z,100880.78
2023-01-12T22:26:36.751Z,100880.80
2023-01-12T22:27:47.064Z,100880.86
2023-01-12T22:28:56.272Z,100873.92
2023-01-12T22:30:08.321Z,100879.27
2023-01-12T22:31:20.356Z,100882.81
2023-01-12T22:32:29.765Z,100879.37
2023-01-12T22:33:39.735Z,100873.28
2023-01-12T22:34:48.275Z,100879.41
2023-01-12T22:37:12.696Z,100868.06
2023-01-12T22:38:21.876Z,100868.95
2023-01-12T22:39:30.956Z,100877.70
2023-01-12T22:40:39.546Z,100877.69
2023-01-12T22:41:49.979Z,100873.29
2023-01-12T22:43:17.138Z,100878.52
2023-01-12T22:44:25.949Z,100879.39
2023-01-12T22:45:37.057Z,100882.87
2023-01-12T22:46:47.077Z,100889.00
2023-01-12T22:47:58.060Z,100871.45
2023-01-12T22:49:06.822Z,100881.05
2023-01-12T22:50:17.663Z,100882.78
2023-01-12T22:51:29.261Z,100880.14
2023-01-12T22:52:38.707Z,100883.66
2023-01-12T22:53:47.860Z,100881.00
2023-01-12T22:54:56.876Z,100873.95
2023-01-12T22:56:07.019Z,100874.81
2023-01-12T22:57:15.685Z,100869.55
2023-01-12T22:58:24.422Z,100871.28
2023-01-12T22:59:33.088Z,100864.22
2023-01-12T23:00:44.112Z,100863.34
2023-01-12T23:01:53.301Z,100861.56
2023-01-12T23:16:43.480Z,100861.88
2023-01-12T23:17:53.191Z,100869.80
2023-01-12T23:19:03.006Z,100871.55
2023-01-12T23:20:12.043Z,100867.16
2023-01-12T23:21:25.758Z,100865.43
2023-01-12T23:22:34.454Z,100869.79
2023-01-12T23:23:51.059Z,100863.66
2023-01-12T23:25:00.016Z,100861.87
2023-01-12T23:26:11.547Z,100861.86
2023-01-12T23:27:21.289Z,100860.08
2023-01-12T23:28:30.679Z,100866.25
2023-01-12T23:29:41.176Z,100864.52
2023-01-12T23:30:49.794Z,100861.88
2023-01-12T23:31:59.102Z,100855.75
2023-01-12T23:33:08.576Z,100857.53
2023-01-12T23:34:20.504Z,100860.16
2023-01-12T23:35:32.241Z,100857.55
2023-01-12T23:36:42.562Z,100854.91
2023-01-12T23:37:52.383Z,100851.41
2023-01-12T23:40:20.001Z,100852.30
2023-01-12T23:41:31.108Z,100851.41
2023-01-12T23:42:39.693Z,100850.55
2023-01-12T23:43:57.445Z,100859.30
2023-01-12T23:45:07.495Z,100849.67
2023-01-12T23:46:19.794Z,100854.03
2023-01-12T23:47:29.757Z,100847.92
2023-01-12T23:48:41.506Z,100853.17
2023-01-12T23:49:50.086Z,100848.80
2023-01-12T23:51:00.528Z,100852.28
2023-01-12T23:52:09.576Z,100849.66
2023-01-12T23:53:18.266Z,100852.28
2023-01-12T23:54:27.060Z,100851.43
2023-01-12T23:55:39.686Z,100850.55
2023-01-12T23:56:51.923Z,100846.16
2023-01-12T23:58:02.187Z,100844.39
2023-01-12T23:59:11.477Z,100848.77
